sensor_id;sensor_type;location;lat;lon;timestamp;pressure;altitude;pressure_sealevel;temperature;humidity
79374;BME280;68844;53.128;17.958;2023-06-19T00:02:13;100961.46;;;14.06;81.17
79374;BME280;68844;53.128;17.958;2023-06-19T00:04:40;100959.73;;;14.08;81.25
79374;BME280;68844;53.128;17.958;2023-06-19T00:07:06;100961.05;;;14.06;81.63
79374;BME280;68844;53.128;17.958;2023-06-19T00:09:33;100957.63;;;14.05;81.51
79374;BME280;68844;53.128;17.958;2023-06-19T00:12:00;100956.88;;;14.03;81.39
79374;BME280;68844;53.128;17.958;2023-06-19T00:14:28;100959.31;;;14.00;81.09
79374;BME280;68844;53.128;17.958;2023-06-19T00:16:54;100959.39;;;14.02;81.65
79374;BME280;68844;53.128;17.958;2023-06-19T00:19:22;100961.63;;;14.03;82.07
79374;BME280;68844;53.128;17.958;2023-06-19T00:21:49;100962.27;;;14.01;82.08
79374;BME280;68844;53.128;17.958;2023-06-19T00:24:16;100963.57;;;13.98;81.86
79374;BME280;68844;53.128;17.958;2023-06-19T00:26:42;100966.34;;;13.96;81.93
79374;BME280;68844;53.128;17.958;2023-06-19T00:29:09;100971.34;;;13.95;81.70
79374;BME280;68844;53.128;17.958;2023-06-19T00:31:36;100969.25;;;13.98;81.79
79374;BME280;68844;53.128;17.958;2023-06-19T00:34:03;100970.11;;;13.98;81.73
79374;BME280;68844;53.128;17.958;2023-06-19T00:36:30;100966.79;;;13.95;82.36
79374;BME280;68844;53.128;17.958;2023-06-19T00:38:57;100968.79;;;13.91;81.91
79374;BME280;68844;53.128;17.958;2023-06-19T00:41:26;100968.48;;;13.88;81.80
79374;BME280;68844;53.128;17.958;2023-06-19T00:43:54;100965.68;;;13.87;81.56
79374;BME280;68844;53.128;17.958;2023-06-19T00:46:21;100966.00;;;13.85;81.62
79374;BME280;68844;53.128;17.958;2023-06-19T00:48:48;100965.75;;;13.84;81.94
79374;BME280;68844;53.128;17.958;2023-06-19T00:51:15;100961.79;;;13.80;82.07
79374;BME280;68844;53.128;17.958;2023-06-19T00:53:42;100957.80;;;13.76;81.65
79374;BME280;68844;53.128;17.958;2023-06-19T00:56:09;100954.27;;;13.73;81.36
79374;BME280;68844;53.128;17.958;2023-06-19T00:58:36;100957.76;;;13.72;81.44
79374;BME280;68844;53.128;17.958;2023-06-19T01:01:03;100961.03;;;13.70;81.75
79374;BME280;68844;53.128;17.958;2023-06-19T01:03:30;100958.22;;;13.65;82.16
79374;BME280;68844;53.128;17.958;2023-06-19T01:05:59;100957.72;;;13.58;82.11
79374;BME280;68844;53.128;17.958;2023-06-19T01:08:55;100953.48;;;13.55;81.59
79374;BME280;68844;53.128;17.958;2023-06-19T01:11:33;100951.05;;;13.52;82.17
79374;BME280;68844;53.128;17.958;2023-06-19T01:14:08;100951.34;;;13.53;81.82
79374;BME280;68844;53.128;17.958;2023-06-19T01:16:36;100952.75;;;13.53;82.29
79374;BME280;68844;53.128;17.958;2023-06-19T01:19:05;100955.29;;;13.53;82.20
79374;BME280;68844;53.128;17.958;2023-06-19T01:21:35;100955.90;;;13.51;82.11
79374;BME280;68844;53.128;17.958;2023-06-19T01:24:04;100954.23;;;13.49;81.56
79374;BME280;68844;53.128;17.958;2023-06-19T01:26:32;100953.00;;;13.49;81.62
79374;BME280;68844;53.128;17.958;2023-06-19T01:28:59;100952.91;;;13.48;82.14
79374;BME280;68844;53.128;17.958;2023-06-19T01:31:34;100953.39;;;13.44;81.96
79374;BME280;68844;53.128;17.958;2023-06-19T01:34:03;100952.00;;;13.41;81.83
79374;BME280;68844;53.128;17.958;2023-06-19T01:36:31;100951.02;;;13.37;81.67
79374;BME280;68844;53.128;17.958;2023-06-19T01:39:00;100953.95;;;13.35;81.84
79374;BME280;68844;53.128;17.958;2023-06-19T01:41:27;100952.88;;;13.35;81.56
79374;BME280;68844;53.128;17.958;2023-06-19T01:43:56;100954.98;;;13.33;81.69
79374;BME280;68844;53.128;17.958;2023-06-19T01:46:23;100953.05;;;13.30;81.96
79374;BME280;68844;53.128;17.958;2023-06-19T01:48:50;100953.17;;;13.26;81.79
79374;BME280;68844;53.128;17.958;2023-06-19T01:51:18;100958.55;;;13.22;81.70
79374;BME280;68844;53.128;17.958;2023-06-19T01:53:45;100953.73;;;13.23;81.75
79374;BME280;68844;53.128;17.958;2023-06-19T01:56:12;100954.09;;;13.17;82.16
79374;BME280;68844;53.128;17.958;2023-06-19T01:58:38;100954.25;;;13.15;82.43
79374;BME280;68844;53.128;17.958;2023-06-19T02:01:05;100955.52;;;13.14;82.13
79374;BME280;68844;53.128;17.958;2023-06-19T02:03:32;100952.12;;;13.12;81.92
79374;BME280;68844;53.128;17.958;2023-06-19T02:05:59;100946.17;;;13.10;81.68
79374;BME280;68844;53.128;17.958;2023-06-19T02:08:27;100947.52;;;13.06;81.85
79374;BME280;68844;53.128;17.958;2023-06-19T02:10:54;100949.29;;;13.06;82.51
79374;BME280;68844;53.128;17.958;2023-06-19T02:13:21;100952.70;;;13.03;82.22
79374;BME280;68844;53.128;17.958;2023-06-19T02:15:49;100954.48;;;12.99;82.33
79374;BME280;68844;53.128;17.958;2023-06-19T02:18:18;100947.88;;;12.95;81.67
79374;BME280;68844;53.128;17.958;2023-06-19T02:20:45;100947.81;;;12.94;82.16
79374;BME280;68844;53.128;17.958;2023-06-19T02:23:12;100946.50;;;12.92;81.98
79374;BME280;68844;53.128;17.958;2023-06-19T02:25:40;100945.12;;;12.89;82.69
79374;BME280;68844;53.128;17.958;2023-06-19T02:28:09;100944.81;;;12.85;81.70
79374;BME280;68844;53.128;17.958;2023-06-19T02:30:36;100945.10;;;12.83;82.05
79374;BME280;68844;53.128;17.958;2023-06-19T02:33:03;100941.25;;;12.86;81.60
79374;BME280;68844;53.128;17.958;2023-06-19T02:35:30;100945.55;;;12.87;81.91
79374;BME280;68844;53.128;17.958;2023-06-19T02:37:57;100947.95;;;12.86;81.77
79374;BME280;68844;53.128;17.958;2023-06-19T02:40:24;100946.92;;;12.77;82.28
79374;BME280;68844;53.128;17.958;2023-06-19T02:42:51;100944.95;;;12.74;82.14
79374;BME280;68844;53.128;17.958;2023-06-19T02:45:18;100950.05;;;12.80;81.87
79374;BME280;68844;53.128;17.958;2023-06-19T02:47:48;100947.23;;;12.86;81.72
79374;BME280;68844;53.128;17.958;2023-06-19T02:50:15;100947.93;;;12.89;82.03
79374;BME280;68844;53.128;17.958;2023-06-19T02:52:42;100948.56;;;12.93;82.08
79374;BME280;68844;53.128;17.958;2023-06-19T02:55:08;100948.39;;;12.98;83.03
79374;BME280;68844;53.128;17.958;2023-06-19T02:57:36;100949.73;;;13.02;81.83
79374;BME280;68844;53.128;17.958;2023-06-19T03:00:05;100950.49;;;13.07;81.64
79374;BME280;68844;53.128;17.958;2023-06-19T03:02:36;100957.70;;;13.13;81.85
79374;BME280;68844;53.128;17.958;2023-06-19T03:05:05;100959.39;;;13.19;81.90
79374;BME280;68844;53.128;17.958;2023-06-19T03:07:33;100962.00;;;13.26;81.68
79374;BME280;68844;53.128;17.958;2023-06-19T03:10:01;100964.75;;;13.30;81.70
79374;BME280;68844;53.128;17.958;2023-06-19T03:12:29;100967.33;;;13.36;81.14
79374;BME280;68844;53.128;17.958;2023-06-19T03:14:56;100972.85;;;13.46;81.45
79374;BME280;68844;53.128;17.958;2023-06-19T03:17:23;100970.83;;;13.56;81.35
79374;BME280;68844;53.128;17.958;2023-06-19T03:19:50;100973.45;;;13.67;81.24
79374;BME280;68844;53.128;17.958;2023-06-19T03:22:19;100971.09;;;14.17;81.11
79374;BME280;68844;53.128;17.958;2023-06-19T03:24:48;100965.86;;;15.04;79.59
79374;BME280;68844;53.128;17.958;2023-06-19T03:27:20;100967.13;;;15.85;77.96
79374;BME280;68844;53.128;17.958;2023-06-19T03:29:47;100968.52;;;16.46;76.96
79374;BME280;68844;53.128;17.958;2023-06-19T03:32:18;100967.19;;;16.87;76.04
79374;BME280;68844;53.128;17.958;2023-06-19T03:34:47;100964.79;;;17.56;74.63
79374;BME280;68844;53.128;17.958;2023-06-19T03:37:15;100970.27;;;18.26;72.67
79374;BME280;68844;53.128;17.958;2023-06-19T03:39:42;100969.88;;;18.96;71.04
79374;BME280;68844;53.128;17.958;2023-06-19T03:42:10;100970.70;;;19.60;68.50
79374;BME280;68844;53.128;17.958;2023-06-19T03:44:37;100972.21;;;20.21;66.31
79374;BME280;68844;53.128;17.958;2023-06-19T03:47:05;100965.84;;;20.77;64.49
79374;BME280;68844;53.128;17.958;2023-06-19T03:49:32;100964.45;;;21.31;62.80
79374;BME280;68844;53.128;17.958;2023-06-19T03:51:59;100969.98;;;21.80;60.61
79374;BME280;68844;53.128;17.958;2023-06-19T03:54:26;100971.17;;;22.24;58.79
79374;BME280;68844;53.128;17.958;2023-06-19T03:56:53;100968.83;;;22.71;58.88
79374;BME280;68844;53.128;17.958;2023-06-19T03:59:20;100966.09;;;23.19;57.00
79374;BME280;68844;53.128;17.958;2023-06-19T04:01:47;100964.04;;;23.62;55.20
79374;BME280;68844;53.128;17.958;2023-06-19T04:04:14;100965.09;;;23.97;55.28
79374;BME280;68844;53.128;17.958;2023-06-19T04:06:41;100960.52;;;24.37;54.09
79374;BME280;68844;53.128;17.958;2023-06-19T04:09:08;100956.40;;;24.79;51.57
79374;BME280;68844;53.128;17.958;2023-06-19T04:11:37;100958.24;;;25.24;50.06
79374;BME280;68844;53.128;17.958;2023-06-19T04:14:04;100955.98;;;25.55;49.51
79374;BME280;68844;53.128;17.958;2023-06-19T04:16:31;100956.41;;;25.78;49.00
79374;BME280;68844;53.128;17.958;2023-06-19T04:18:58;100959.06;;;26.21;49.07
79374;BME280;68844;53.128;17.958;2023-06-19T04:21:26;100954.75;;;26.73;47.27
79374;BME280;68844;53.128;17.958;2023-06-19T04:23:53;100956.44;;;27.24;46.39
79374;BME280;68844;53.128;17.958;2023-06-19T04:26:20;100963.38;;;27.58;47.17
79374;BME280;68844;53.128;17.958;2023-06-19T04:28:48;100958.61;;;27.78;43.89
79374;BME280;68844;53.128;17.958;2023-06-19T04:31:15;100959.66;;;28.14;44.96
79374;BME280;68844;53.128;17.958;2023-06-19T04:33:45;100960.48;;;28.17;44.15
79374;BME280;68844;53.128;17.958;2023-06-19T04:36:12;100961.77;;;27.98;41.64
79374;BME280;68844;53.128;17.958;2023-06-19T04:38:39;100959.67;;;28.40;41.68
79374;BME280;68844;53.128;17.958;2023-06-19T04:41:06;100963.58;;;28.73;39.93
79374;BME280;68844;53.128;17.958;2023-06-19T04:43:33;100963.26;;;29.14;39.91
79374;BME280;68844;53.128;17.958;2023-06-19T04:46:00;100962.80;;;29.33;39.59
79374;BME280;68844;53.128;17.958;2023-06-19T04:48:30;100965.73;;;29.82;39.41
79374;BME280;68844;53.128;17.958;2023-06-19T04:50:57;100966.66;;;30.33;38.01
79374;BME280;68844;53.128;17.958;2023-06-19T04:53:27;100962.29;;;30.46;39.02
79374;BME280;68844;53.128;17.958;2023-06-19T04:55:55;100969.30;;;30.55;37.36
79374;BME280;68844;53.128;17.958;2023-06-19T04:58:21;100971.48;;;31.04;37.20
79374;BME280;68844;53.128;17.958;2023-06-19T05:00:49;100974.21;;;31.64;36.41
79374;BME280;68844;53.128;17.958;2023-06-19T05:03:19;100973.27;;;32.03;35.08
79374;BME280;68844;53.128;17.958;2023-06-19T05:05:46;100981.34;;;31.89;34.12
79374;BME280;68844;53.128;17.958;2023-06-19T05:08:13;100985.78;;;31.89;35.07
79374;BME280;68844;53.128;17.958;2023-06-19T05:10:40;100983.58;;;32.40;34.11
79374;BME280;68844;53.128;17.958;2023-06-19T05:13:07;100985.80;;;32.92;33.84
79374;BME280;68844;53.128;17.958;2023-06-19T05:15:35;100989.70;;;32.56;32.59
79374;BME280;68844;53.128;17.958;2023-06-19T05:18:02;100988.40;;;32.69;33.77
79374;BME280;68844;53.128;17.958;2023-06-19T05:20:29;100985.80;;;32.61;32.76
79374;BME280;68844;53.128;17.958;2023-06-19T05:22:56;100987.73;;;32.55;33.18
79374;BME280;68844;53.128;17.958;2023-06-19T05:25:23;100990.75;;;32.82;34.19
79374;BME280;68844;53.128;17.958;2023-06-19T05:27:50;100991.73;;;33.20;33.25
79374;BME280;68844;53.128;17.958;2023-06-19T05:30:17;100993.83;;;33.53;32.49
79374;BME280;68844;53.128;17.958;2023-06-19T05:32:44;100998.08;;;33.56;32.58
79374;BME280;68844;53.128;17.958;2023-06-19T05:35:11;101001.09;;;33.98;31.40
79374;BME280;68844;53.128;17.958;2023-06-19T05:37:38;101000.14;;;34.38;31.18
79374;BME280;68844;53.128;17.958;2023-06-19T05:40:06;100997.14;;;34.60;31.44
79374;BME280;68844;53.128;17.958;2023-06-19T05:42:33;101000.48;;;34.80;30.53
79374;BME280;68844;53.128;17.958;2023-06-19T05:45:01;101001.77;;;35.25;29.67
79374;BME280;68844;53.128;17.958;2023-06-19T05:47:29;101005.80;;;35.66;29.07
79374;BME280;68844;53.128;17.958;2023-06-19T05:49:57;100999.86;;;36.41;27.68
79374;BME280;68844;53.128;17.958;2023-06-19T05:52:24;101000.54;;;36.71;27.46
79374;BME280;68844;53.128;17.958;2023-06-19T05:54:51;101004.66;;;36.38;27.68
79374;BME280;68844;53.128;17.958;2023-06-19T05:57:22;101006.38;;;36.71;27.40
79374;BME280;68844;53.128;17.958;2023-06-19T05:59:49;101007.28;;;36.65;26.57
79374;BME280;68844;53.128;17.958;2023-06-19T06:02:18;101005.58;;;36.44;27.22
79374;BME280;68844;53.128;17.958;2023-06-19T06:04:46;101001.65;;;37.15;26.76
79374;BME280;68844;53.128;17.958;2023-06-19T06:07:12;101000.27;;;37.42;26.18
79374;BME280;68844;53.128;17.958;2023-06-19T06:09:40;100999.55;;;37.81;26.67
79374;BME280;68844;53.128;17.958;2023-06-19T06:12:08;101004.59;;;37.82;25.75
79374;BME280;68844;53.128;17.958;2023-06-19T06:14:35;101004.56;;;37.49;26.21
79374;BME280;68844;53.128;17.958;2023-06-19T06:17:01;101002.41;;;37.58;25.15
79374;BME280;68844;53.128;17.958;2023-06-19T06:19:29;101004.98;;;37.72;24.82
79374;BME280;68844;53.128;17.958;2023-06-19T06:21:58;101006.75;;;37.82;24.70
79374;BME280;68844;53.128;17.958;2023-06-19T06:24:25;101005.90;;;37.61;24.39
79374;BME280;68844;53.128;17.958;2023-06-19T06:26:52;101012.82;;;37.88;24.91
79374;BME280;68844;53.128;17.958;2023-06-19T06:29:20;101012.44;;;39.04;23.59
79374;BME280;68844;53.128;17.958;2023-06-19T06:31:47;101020.65;;;39.86;23.34
79374;BME280;68844;53.128;17.958;2023-06-19T06:34:14;101023.92;;;40.43;21.90
79374;BME280;68844;53.128;17.958;2023-06-19T06:36:41;101022.70;;;41.03;20.62
79374;BME280;68844;53.128;17.958;2023-06-19T06:39:08;101021.85;;;41.06;20.50
79374;BME280;68844;53.128;17.958;2023-06-19T06:41:35;101021.47;;;41.49;19.75
79374;BME280;68844;53.128;17.958;2023-06-19T06:44:05;101025.23;;;41.25;20.25
79374;BME280;68844;53.128;17.958;2023-06-19T06:46:32;101024.78;;;41.64;20.56
79374;BME280;68844;53.128;17.958;2023-06-19T06:48:59;101027.45;;;42.26;20.75
79374;BME280;68844;53.128;17.958;2023-06-19T06:51:26;101028.06;;;42.94;20.13
79374;BME280;68844;53.128;17.958;2023-06-19T06:53:53;101032.75;;;43.28;19.08
79374;BME280;68844;53.128;17.958;2023-06-19T06:56:20;101031.80;;;43.57;18.83
79374;BME280;68844;53.128;17.958;2023-06-19T06:58:47;101032.84;;;43.42;18.63
79374;BME280;68844;53.128;17.958;2023-06-19T07:01:14;101034.89;;;43.10;18.30
79374;BME280;68844;53.128;17.958;2023-06-19T07:03:41;101036.41;;;43.40;17.78
79374;BME280;68844;53.128;17.958;2023-06-19T07:06:09;101034.36;;;43.31;17.80
79374;BME280;68844;53.128;17.958;2023-06-19T07:08:35;101034.08;;;43.05;16.77
79374;BME280;68844;53.128;17.958;2023-06-19T07:11:02;101037.55;;;42.46;18.53
79374;BME280;68844;53.128;17.958;2023-06-19T07:13:30;101038.92;;;42.41;18.12
79374;BME280;68844;53.128;17.958;2023-06-19T07:15:56;101038.44;;;42.08;17.92
79374;BME280;68844;53.128;17.958;2023-06-19T07:18:25;101036.92;;;41.43;17.79
79374;BME280;68844;53.128;17.958;2023-06-19T07:20:52;101040.99;;;39.46;19.58
79374;BME280;68844;53.128;17.958;2023-06-19T07:23:19;101042.07;;;39.61;20.68
79374;BME280;68844;53.128;17.958;2023-06-19T07:25:46;101041.07;;;40.58;19.77
79374;BME280;68844;53.128;17.958;2023-06-19T07:28:14;101046.30;;;41.30;19.33
79374;BME280;68844;53.128;17.958;2023-06-19T07:30:42;101046.95;;;41.84;19.33
79374;BME280;68844;53.128;17.958;2023-06-19T07:33:10;101048.98;;;42.26;18.58
79374;BME280;68844;53.128;17.958;2023-06-19T07:35:37;101052.86;;;42.99;17.72
79374;BME280;68844;53.128;17.958;2023-06-19T07:38:05;101053.70;;;42.72;17.43
79374;BME280;68844;53.128;17.958;2023-06-19T07:40:32;101052.57;;;43.11;17.80
79374;BME280;68844;53.128;17.958;2023-06-19T07:42:59;101055.46;;;43.35;17.26
79374;BME280;68844;53.128;17.958;2023-06-19T07:45:26;101049.70;;;43.32;16.40
79374;BME280;68844;53.128;17.958;2023-06-19T07:47:54;101049.52;;;42.84;17.59
79374;BME280;68844;53.128;17.958;2023-06-19T07:50:22;101048.48;;;42.73;17.67
79374;BME280;68844;53.128;17.958;2023-06-19T07:52:49;101048.23;;;43.34;17.02
79374;BME280;68844;53.128;17.958;2023-06-19T07:55:16;101038.05;;;43.20;17.03
79374;BME280;68844;53.128;17.958;2023-06-19T07:57:43;101044.42;;;42.61;17.16
79374;BME280;68844;53.128;17.958;2023-06-19T08:00:11;101045.23;;;42.53;17.56
79374;BME280;68844;53.128;17.958;2023-06-19T08:02:40;101040.71;;;41.97;17.56
79374;BME280;68844;53.128;17.958;2023-06-19T08:05:08;101037.70;;;41.89;17.64
79374;BME280;68844;53.128;17.958;2023-06-19T08:07:36;101039.39;;;41.94;17.67
79374;BME280;68844;53.128;17.958;2023-06-19T08:10:03;101033.69;;;41.53;16.91
79374;BME280;68844;53.128;17.958;2023-06-19T08:12:31;101035.48;;;42.22;17.06
79374;BME280;68844;53.128;17.958;2023-06-19T08:14:58;101036.91;;;42.07;17.22
79374;BME280;68844;53.128;17.958;2023-06-19T08:17:25;101037.02;;;42.18;17.33
79374;BME280;68844;53.128;17.958;2023-06-19T08:19:51;101038.26;;;42.83;17.27
79374;BME280;68844;53.128;17.958;2023-06-19T08:22:18;101037.40;;;42.67;16.80
79374;BME280;68844;53.128;17.958;2023-06-19T08:24:45;101035.03;;;42.99;17.22
79374;BME280;68844;53.128;17.958;2023-06-19T08:27:12;101033.98;;;43.07;16.65
79374;BME280;68844;53.128;17.958;2023-06-19T08:29:39;101037.45;;;43.54;16.27
79374;BME280;68844;53.128;17.958;2023-06-19T08:32:06;101037.11;;;43.70;14.87
79374;BME280;68844;53.128;17.958;2023-06-19T08:34:35;101029.89;;;42.67;15.38
79374;BME280;68844;53.128;17.958;2023-06-19T08:37:08;101031.71;;;42.59;16.02
79374;BME280;68844;53.128;17.958;2023-06-19T08:39:35;101032.20;;;42.61;16.65
79374;BME280;68844;53.128;17.958;2023-06-19T08:42:06;101030.61;;;42.63;16.50
79374;BME280;68844;53.128;17.958;2023-06-19T08:44:35;101033.19;;;42.89;16.78
79374;BME280;68844;53.128;17.958;2023-06-19T08:47:03;101035.27;;;42.81;16.26
79374;BME280;68844;53.128;17.958;2023-06-19T08:49:33;101032.30;;;42.60;16.25
79374;BME280;68844;53.128;17.958;2023-06-19T08:52:02;101031.29;;;42.45;16.66
79374;BME280;68844;53.128;17.958;2023-06-19T08:54:29;101032.39;;;42.91;16.37
79374;BME280;68844;53.128;17.958;2023-06-19T08:57:00;101032.70;;;42.85;15.78
79374;BME280;68844;53.128;17.958;2023-06-19T08:59:27;101027.48;;;40.81;16.97
79374;BME280;68844;53.128;17.958;2023-06-19T09:01:55;101026.27;;;38.53;19.00
79374;BME280;68844;53.128;17.958;2023-06-19T09:04:30;101022.05;;;37.71;20.46
79374;BME280;68844;53.128;17.958;2023-06-19T09:07:02;101020.10;;;37.77;21.07
79374;BME280;68844;53.128;17.958;2023-06-19T09:09:36;101020.80;;;39.27;19.20
79374;BME280;68844;53.128;17.958;2023-06-19T09:12:06;101021.65;;;39.60;19.24
79374;BME280;68844;53.128;17.958;2023-06-19T09:14:39;101017.98;;;38.02;20.18
79374;BME280;68844;53.128;17.958;2023-06-19T09:17:11;101016.20;;;37.34;21.24
79374;BME280;68844;53.128;17.958;2023-06-19T09:19:38;101012.36;;;39.11;19.82
79374;BME280;68844;53.128;17.958;2023-06-19T09:22:17;101006.80;;;40.08;19.26
79374;BME280;68844;53.128;17.958;2023-06-19T09:24:45;101006.58;;;40.12;18.49
79374;BME280;68844;53.128;17.958;2023-06-19T09:27:17;101002.70;;;39.80;18.51
79374;BME280;68844;53.128;17.958;2023-06-19T09:29:50;101002.09;;;40.20;19.74
79374;BME280;68844;53.128;17.958;2023-06-19T09:34:47;100998.20;;;41.64;17.50
79374;BME280;68844;53.128;17.958;2023-06-19T09:37:15;100999.66;;;41.91;16.86
79374;BME280;68844;53.128;17.958;2023-06-19T09:39:44;100995.41;;;41.20;17.00
79374;BME280;68844;53.128;17.958;2023-06-19T09:42:13;100997.73;;;40.66;17.72
79374;BME280;68844;53.128;17.958;2023-06-19T09:44:42;100993.83;;;41.27;18.37
79374;BME280;68844;53.128;17.958;2023-06-19T09:47:17;100993.63;;;42.20;16.73
79374;BME280;68844;53.128;17.958;2023-06-19T09:49:55;100994.80;;;42.82;16.57
79374;BME280;68844;53.128;17.958;2023-06-19T09:52:23;100997.20;;;43.43;15.53
79374;BME280;68844;53.128;17.958;2023-06-19T09:54:53;100991.09;;;43.61;14.31
79374;BME280;68844;53.128;17.958;2023-06-19T09:57:20;100995.77;;;43.00;15.20
79374;BME280;68844;53.128;17.958;2023-06-19T09:59:54;100997.42;;;43.04;15.45
79374;BME280;68844;53.128;17.958;2023-06-19T10:02:24;100991.36;;;42.79;15.03
79374;BME280;68844;53.128;17.958;2023-06-19T10:04:54;100992.63;;;42.86;15.06
79374;BME280;68844;53.128;17.958;2023-06-19T10:07:34;100987.77;;;41.99;14.68
79374;BME280;68844;53.128;17.958;2023-06-19T10:10:06;100987.73;;;41.75;15.67
79374;BME280;68844;53.128;17.958;2023-06-19T10:12:42;100979.02;;;41.45;14.94
79374;BME280;68844;53.128;17.958;2023-06-19T10:18:04;100977.20;;;41.80;15.88
79374;BME280;68844;53.128;17.958;2023-06-19T10:20:37;100971.17;;;41.78;15.02
79374;BME280;68844;53.128;17.958;2023-06-19T10:23:21;100973.49;;;42.10;15.47
79374;BME280;68844;53.128;17.958;2023-06-19T10:28:27;100969.66;;;42.09;14.58
79374;BME280;68844;53.128;17.958;2023-06-19T10:31:08;100968.95;;;41.95;14.91
79374;BME280;68844;53.128;17.958;2023-06-19T10:33:36;100971.70;;;41.60;15.71
79374;BME280;68844;53.128;17.958;2023-06-19T10:36:18;100971.93;;;41.97;15.52
79374;BME280;68844;53.128;17.958;2023-06-19T10:38:46;100970.27;;;41.55;15.78
79374;BME280;68844;53.128;17.958;2023-06-19T10:41:17;100975.12;;;41.63;15.14
79374;BME280;68844;53.128;17.958;2023-06-19T10:44:02;100971.86;;;41.38;15.13
79374;BME280;68844;53.128;17.958;2023-06-19T10:46:33;100967.44;;;40.99;15.58
79374;BME280;68844;53.128;17.958;2023-06-19T10:49:17;100969.80;;;41.10;16.10
79374;BME280;68844;53.128;17.958;2023-06-19T10:51:44;100968.77;;;40.58;15.72
79374;BME280;68844;53.128;17.958;2023-06-19T10:54:12;100968.62;;;39.44;16.20
79374;BME280;68844;53.128;17.958;2023-06-19T10:56:39;100974.23;;;39.10;17.27
79374;BME280;68844;53.128;17.958;2023-06-19T10:59:07;100968.88;;;39.08;17.33
79374;BME280;68844;53.128;17.958;2023-06-19T11:01:40;100971.00;;;38.54;17.66
79374;BME280;68844;53.128;17.958;2023-06-19T11:04:10;100969.41;;;37.75;18.37
79374;BME280;68844;53.128;17.958;2023-06-19T11:06:39;100971.52;;;37.78;18.43
79374;BME280;68844;53.128;17.958;2023-06-19T11:09:08;100967.47;;;37.82;18.06
79374;BME280;68844;53.128;17.958;2023-06-19T11:11:44;100968.63;;;38.05;18.62
79374;BME280;68844;53.128;17.958;2023-06-19T11:14:13;100968.58;;;38.36;18.15
79374;BME280;68844;53.128;17.958;2023-06-19T11:16:45;100964.98;;;36.80;19.31
79374;BME280;68844;53.128;17.958;2023-06-19T11:19:18;100965.09;;;36.38;20.05
79374;BME280;68844;53.128;17.958;2023-06-19T11:21:49;100962.32;;;35.74;20.01
79374;BME280;68844;53.128;17.958;2023-06-19T11:24:18;100968.20;;;35.15;20.61
79374;BME280;68844;53.128;17.958;2023-06-19T11:26:48;100967.44;;;35.11;20.64
79374;BME280;68844;53.128;17.958;2023-06-19T11:29:16;100969.55;;;35.32;21.58
79374;BME280;68844;53.128;17.958;2023-06-19T11:31:46;100966.86;;;35.57;22.84
79374;BME280;68844;53.128;17.958;2023-06-19T11:34:16;100971.46;;;35.77;21.57
79374;BME280;68844;53.128;17.958;2023-06-19T11:36:44;100963.79;;;35.82;20.52
79374;BME280;68844;53.128;17.958;2023-06-19T11:39:15;100964.36;;;35.40;22.68
79374;BME280;68844;53.128;17.958;2023-06-19T11:41:44;100961.92;;;35.64;22.48
79374;BME280;68844;53.128;17.958;2023-06-19T11:44:11;100963.01;;;35.69;22.33
79374;BME280;68844;53.128;17.958;2023-06-19T11:46:38;100961.28;;;35.68;23.20
79374;BME280;68844;53.128;17.958;2023-06-19T11:49:12;100958.43;;;35.77;22.22
79374;BME280;68844;53.128;17.958;2023-06-19T11:51:40;100955.61;;;35.80;22.21
79374;BME280;68844;53.128;17.958;2023-06-19T11:54:09;100954.20;;;35.80;23.52
79374;BME280;68844;53.128;17.958;2023-06-19T11:56:37;100957.33;;;35.83;22.79
79374;BME280;68844;53.128;17.958;2023-06-19T11:59:04;100954.77;;;35.97;22.16
79374;BME280;68844;53.128;17.958;2023-06-19T12:01:32;100948.45;;;36.13;21.93
79374;BME280;68844;53.128;17.958;2023-06-19T12:04:00;100947.48;;;36.31;21.63
79374;BME280;68844;53.128;17.958;2023-06-19T12:06:29;100944.18;;;35.94;20.62
79374;BME280;68844;53.128;17.958;2023-06-19T12:08:57;100944.62;;;35.56;21.81
79374;BME280;68844;53.128;17.958;2023-06-19T12:11:23;100939.25;;;35.74;21.17
79374;BME280;68844;53.128;17.958;2023-06-19T12:13:51;100941.98;;;35.77;21.53
79374;BME280;68844;53.128;17.958;2023-06-19T12:16:20;100940.54;;;35.85;22.39
79374;BME280;68844;53.128;17.958;2023-06-19T12:18:47;100940.56;;;36.16;22.32
79374;BME280;68844;53.128;17.958;2023-06-19T12:21:15;100940.56;;;36.26;22.15
79374;BME280;68844;53.128;17.958;2023-06-19T12:23:42;100936.52;;;36.39;21.88
79374;BME280;68844;53.128;17.958;2023-06-19T12:26:09;100934.96;;;36.16;21.32
79374;BME280;68844;53.128;17.958;2023-06-19T12:28:36;100932.98;;;36.41;21.94
79374;BME280;68844;53.128;17.958;2023-06-19T12:31:03;100931.77;;;36.22;22.62
79374;BME280;68844;53.128;17.958;2023-06-19T12:33:31;100932.11;;;36.20;21.14
79374;BME280;68844;53.128;17.958;2023-06-19T12:35:59;100931.13;;;36.17;20.60
79374;BME280;68844;53.128;17.958;2023-06-19T12:38:27;100923.70;;;36.01;20.97
79374;BME280;68844;53.128;17.958;2023-06-19T12:40:54;100923.00;;;35.73;20.60
79374;BME280;68844;53.128;17.958;2023-06-19T12:43:21;100921.69;;;34.67;21.81
79374;BME280;68844;53.128;17.958;2023-06-19T12:45:48;100923.63;;;34.49;21.77
79374;BME280;68844;53.128;17.958;2023-06-19T12:48:15;100919.67;;;34.00;22.92
79374;BME280;68844;53.128;17.958;2023-06-19T12:50:42;100922.59;;;33.77;24.83
79374;BME280;68844;53.128;17.958;2023-06-19T12:53:09;100924.00;;;33.43;23.65
79374;BME280;68844;53.128;17.958;2023-06-19T12:55:35;100920.23;;;32.70;24.19